Time;durP1;ratioP1;P1;durP2;ratioP2;P2;SDS_P1;SDS_P2;PMS_P1;PMS_P2;Temp;Humidity;BMP_temperature;BMP_pressure;BME280_temperature;BME280_humidity;BME280_pressure;Samples;Min_cycle;Max_cycle;Signal;HPM_P1;HPM_P2
2023/07/31 00:00:24;;;;;;;4.00;2.00;;;;;;;13.29;100.00;100333.00;4988750;28;20026;-76
2023/07/31 00:02:49;;;;;;;14.17;2.87;;;;;;;13.33;100.00;100333.47;4993766;28;20121;-76
2023/07/31 00:05:15;;;;;;;8.67;3.10;;;;;;;13.22;100.00;100332.91;4990379;28;20033;-76
2023/07/31 00:07:41;;;;;;;9.27;2.30;;;;;;;13.25;100.00;100339.72;4987057;28;20030;-75
2023/07/31 00:10:09;;;;;;;6.77;2.63;;;;;;;13.32;100.00;100334.47;4997178;28;20028;-76
2023/07/31 00:12:35;;;;;;;7.82;2.33;;;;;;;13.30;100.00;100321.28;4993590;28;20040;-75
2023/07/31 00:15:01;;;;;;;7.25;2.50;;;;;;;13.27;100.00;100326.97;4984461;28;20109;-76
2023/07/31 00:17:26;;;;;;;9.80;2.50;;;;;;;13.30;100.00;100324.78;5002212;28;20034;-76
2023/07/31 00:19:51;;;;;;;6.13;2.43;;;;;;;13.29;100.00;100335.69;4986586;28;20094;-75
2023/07/31 00:22:17;;;;;;;12.83;2.97;;;;;;;13.21;100.00;100330.44;4987170;28;20065;-76
2023/07/31 00:24:42;;;;;;;7.43;2.30;;;;;;;13.18;100.00;100328.09;4989771;28;20030;-76
2023/07/31 00:27:07;;;;;;;6.53;2.50;;;;;;;13.21;100.00;100338.47;5001517;28;20038;-76
2023/07/31 00:29:33;;;;;;;9.20;2.63;;;;;;;13.24;100.00;100344.25;4995740;28;20021;-76
2023/07/31 00:31:58;;;;;;;8.33;2.83;;;;;;;13.25;100.00;100347.78;5004027;28;20859;-75
2023/07/31 00:34:23;;;;;;;9.97;2.70;;;;;;;13.25;100.00;100345.94;4984735;28;20034;-76
2023/07/31 00:36:49;;;;;;;6.67;2.33;;;;;;;13.25;100.00;100353.97;4991989;28;20061;-76
2023/07/31 00:39:15;;;;;;;9.75;3.80;;;;;;;13.28;100.00;100344.75;5021603;28;20025;-76
2023/07/31 00:41:41;;;;;;;9.57;3.63;;;;;;;13.35;100.00;100340.28;5002780;28;20034;-76
2023/07/31 00:44:06;;;;;;;10.60;3.33;;;;;;;13.36;100.00;100336.59;4992161;28;20038;-77
2023/07/31 00:46:32;;;;;;;;;;;;;;;13.42;100.00;100329.66;4990646;28;20034;-77
2023/07/31 00:48:59;;;;;;;8.77;3.25;;;;;;;13.44;100.00;100325.75;4992955;28;19920;-77
2023/07/31 00:51:24;;;;;;;10.32;2.47;;;;;;;13.37;100.00;100316.81;5003457;28;20030;-78
2023/07/31 00:53:50;;;;;;;11.40;4.05;;;;;;;13.37;100.00;100310.59;5004439;28;20029;-77
2023/07/31 00:56:16;;;;;;;7.18;2.58;;;;;;;13.31;100.00;100314.88;4994531;28;20030;-79
2023/07/31 00:58:42;;;;;;;7.90;2.20;;;;;;;13.32;100.00;100307.66;4990010;28;20025;-78
2023/07/31 01:01:07;;;;;;;6.35;1.90;;;;;;;13.30;100.00;100310.56;5006703;28;20119;-79
2023/07/31 01:03:33;;;;;;;12.53;3.07;;;;;;;13.24;100.00;100311.28;4993019;28;20034;-79
2023/07/31 01:06:06;;;;;;;6.30;2.43;;;;;;;13.24;100.00;100317.47;4990433;28;20640;-78
2023/07/31 01:08:36;;;;;;;8.43;2.30;;;;;;;13.14;100.00;100311.59;4991334;28;20026;-79
2023/07/31 01:11:16;;;;;;;5.72;2.40;;;;;;;13.07;100.00;100322.22;5007563;28;20040;-78
2023/07/31 01:13:42;;;;;;;4.63;2.55;;;;;;;13.02;100.00;100311.25;5007247;28;20028;-79
2023/07/31 01:16:08;;;;;;;8.70;2.47;;;;;;;12.98;100.00;100311.81;5005592;28;20072;-77
2023/07/31 01:18:33;;;;;;;6.03;2.07;;;;;;;12.97;100.00;100312.81;4996051;28;20034;-77
2023/07/31 01:21:18;;;;;;;4.20;2.30;;;;;;;12.96;100.00;100313.84;5007220;28;20157;-77
2023/07/31 01:24:05;;;;;;;7.25;2.75;;;;;;;12.94;100.00;100310.53;5004763;28;20018;-78
2023/07/31 01:26:36;;;;;;;4.25;2.17;;;;;;;12.86;100.00;100306.94;4993667;28;20639;-77
2023/07/31 01:29:17;;;;;;;4.13;1.92;;;;;;;12.85;100.00;100305.28;5004188;28;20045;-79
2023/07/31 01:31:48;;;;;;;5.22;2.05;;;;;;;12.80;100.00;100291.59;4987604;28;20034;-78
2023/07/31 01:34:17;;;;;;;5.32;2.10;;;;;;;12.79;100.00;100286.47;4992538;28;20026;-79
2023/07/31 01:36:43;;;;;;;11.52;2.72;;;;;;;12.75;100.00;100279.81;4998550;28;20038;-78
2023/07/31 01:39:08;;;;;;;8.77;2.88;;;;;;;12.79;100.00;100279.25;5001930;28;20127;-79
2023/07/31 01:41:34;;;;;;;5.00;2.53;;;;;;;12.81;100.00;100279.91;4999761;28;20812;-78
2023/07/31 01:44:02;;;;;;;5.20;2.17;;;;;;;12.84;100.00;100278.69;4986944;28;20034;-80
2023/07/31 01:46:27;;;;;;;8.45;2.30;;;;;;;12.85;100.00;100277.66;4984964;28;20557;-78
2023/07/31 01:48:53;;;;;;;10.65;4.15;;;;;;;12.83;100.00;100285.03;4984917;28;20038;-78
2023/07/31 01:51:18;;;;;;;7.07;3.20;;;;;;;12.83;100.00;100277.00;4990991;28;20022;-78
2023/07/31 01:53:44;;;;;;;7.97;2.60;;;;;;;12.82;100.00;100270.00;4988526;28;20061;-78
2023/07/31 01:56:09;;;;;;;10.03;3.13;;;;;;;12.85;100.00;100265.09;4972404;28;20097;-79
2023/07/31 01:58:35;;;;;;;7.38;2.83;;;;;;;12.90;100.00;100267.22;4996284;28;20045;-78
2023/07/31 02:01:00;;;;;;;4.80;3.47;;;;;;;12.93;100.00;100272.19;4987175;28;20030;-78
2023/07/31 02:03:25;;;;;;;12.70;3.80;;;;;;;12.94;100.00;100268.47;4986282;28;20033;-78
2023/07/31 02:05:54;;;;;;;8.52;3.97;;;;;;;12.97;100.00;100273.47;4989167;28;20265;-79
2023/07/31 02:08:19;;;;;;;11.75;3.40;;;;;;;13.03;100.00;100275.38;5007184;28;20030;-79
2023/07/31 02:10:45;;;;;;;9.27;3.50;;;;;;;12.97;100.00;100272.63;5001862;28;20404;-78
2023/07/31 02:13:10;;;;;;;9.77;3.60;;;;;;;12.92;100.00;100259.81;4995426;28;20136;-77
2023/07/31 02:15:36;;;;;;;8.88;4.78;;;;;;;12.88;100.00;100258.53;5002573;28;20031;-77
2023/07/31 02:18:01;;;;;;;8.20;3.50;;;;;;;12.86;100.00;100253.38;4975738;28;20039;-77
2023/07/31 02:20:27;;;;;;;9.03;2.70;;;;;;;12.80;100.00;100242.56;4989963;28;20019;-78
2023/07/31 02:22:52;;;;;;;8.53;3.17;;;;;;;12.82;100.00;100248.56;4995880;28;20048;-77
2023/07/31 02:25:18;;;;;;;7.60;3.03;;;;;;;12.72;100.00;100238.16;4979967;28;20018;-77
2023/07/31 02:27:44;;;;;;;5.88;2.70;;;;;;;12.81;100.00;100241.56;4993321;28;20530;-79
2023/07/31 02:30:10;;;;;;;7.67;3.50;;;;;;;12.71;100.00;100230.31;4993920;28;20052;-78
2023/07/31 02:32:35;;;;;;;5.75;2.70;;;;;;;12.59;100.00;100213.91;4991259;28;20451;-78
2023/07/31 02:35:01;;;;;;;7.90;3.70;;;;;;;12.62;100.00;100216.22;4992224;28;20034;-78
2023/07/31 02:37:28;;;;;;;6.07;2.60;;;;;;;12.57;100.00;100210.56;4991817;28;20092;-77
2023/07/31 02:39:54;;;;;;;6.18;3.35;;;;;;;12.56;100.00;100207.06;4994818;28;20026;-80
2023/07/31 02:42:19;;;;;;;10.20;3.05;;;;;;;12.53;100.00;100207.47;4990892;28;20069;-79
2023/07/31 02:44:45;;;;;;;7.20;2.63;;;;;;;12.46;100.00;100209.25;4984682;28;20038;-78
2023/07/31 02:47:11;;;;;;;6.20;2.43;;;;;;;12.47;100.00;100213.56;5007336;28;20586;-79
2023/07/31 02:49:36;;;;;;;8.13;3.27;;;;;;;12.56;100.00;100207.06;4977383;28;20478;-79
2023/07/31 02:52:02;;;;;;;7.63;3.00;;;;;;;12.57;100.00;100206.06;4999996;28;20479;-78
2023/07/31 02:54:27;;;;;;;6.85;2.30;;;;;;;12.54;100.00;100203.75;4991057;28;20049;-78
2023/07/31 02:56:53;;;;;;;10.50;3.60;;;;;;;12.62;100.00;100205.50;4995516;28;20529;-78
2023/07/31 02:59:18;;;;;;;9.03;3.47;;;;;;;12.62;100.00;100203.66;5007834;28;20482;-77
2023/07/31 03:01:44;;;;;;;8.15;3.97;;;;;;;12.67;100.00;100203.91;4997436;28;20148;-78
2023/07/31 03:04:09;;;;;;;7.30;3.80;;;;;;;12.62;100.00;100194.81;4986926;28;20383;-79
2023/07/31 03:06:35;;;;;;;7.45;3.25;;;;;;;12.71;100.00;100203.53;4987441;28;20030;-77
2023/07/31 03:09:00;;;;;;;6.43;3.60;;;;;;;12.68;100.00;100197.53;4997803;28;20026;-77
2023/07/31 03:11:27;;;;;;;12.68;5.30;;;;;;;12.73;100.00;100196.13;4992215;28;20026;-78
2023/07/31 03:13:52;;;;;;;8.97;4.50;;;;;;;12.74;100.00;100192.44;5009703;28;20377;-77
2023/07/31 03:16:18;;;;;;;9.77;4.80;;;;;;;12.77;100.00;100195.56;4990965;28;20038;-78
2023/07/31 03:18:43;;;;;;;12.70;4.63;;;;;;;12.89;100.00;100190.53;4994520;28;20030;-77
2023/07/31 03:21:08;;;;;;;11.27;5.70;;;;;;;12.94;100.00;100198.81;4990220;28;20030;-77
2023/07/31 03:23:34;;;;;;;11.63;6.20;;;;;;;13.01;100.00;100196.22;4995245;28;20590;-77
2023/07/31 03:26:03;;;;;;;15.00;5.85;;;;;;;13.02;100.00;100179.94;4988385;28;20035;-78
2023/07/31 03:28:28;;;;;;;16.00;6.97;;;;;;;13.15;100.00;100189.13;5006402;28;20030;-77
2023/07/31 03:30:57;;;;;;;15.75;7.00;;;;;;;13.19;100.00;100187.72;4990016;28;20038;-77
2023/07/31 03:33:22;;;;;;;19.55;7.38;;;;;;;13.23;100.00;100186.31;4984285;28;20026;-76
2023/07/31 03:35:48;;;;;;;10.95;6.95;;;;;;;13.27;100.00;100176.84;4998625;28;20034;-77
2023/07/31 03:38:14;;;;;;;10.75;6.35;;;;;;;13.36;100.00;100180.25;4987740;28;20033;-77
2023/07/31 03:40:39;;;;;;;17.30;7.60;;;;;;;13.32;100.00;100169.06;4989818;28;20040;-76
2023/07/31 03:43:05;;;;;;;14.35;6.78;;;;;;;13.38;100.00;100172.84;5003959;28;20399;-77
2023/07/31 03:45:31;;;;;;;22.88;8.35;;;;;;;13.40;100.00;100174.31;4989981;28;20519;-76
2023/07/31 03:47:56;;;;;;;18.35;7.93;;;;;;;13.43;100.00;100173.09;4987714;28;20121;-77
2023/07/31 03:50:25;;;;;;;17.77;7.15;;;;;;;13.42;100.00;100164.22;5004010;28;20663;-77
2023/07/31 03:52:50;;;;;;;12.65;7.43;;;;;;;13.50;100.00;100169.41;4992712;28;20152;-77
2023/07/31 03:55:16;;;;;;;15.90;7.85;;;;;;;13.52;100.00;100170.06;4992174;28;20129;-77
2023/07/31 03:57:41;;;;;;;15.30;7.53;;;;;;;13.62;100.00;100171.56;4991223;28;20023;-77
2023/07/31 04:00:07;;;;;;;16.60;7.33;;;;;;;13.62;100.00;100169.72;4982873;28;20026;-77
2023/07/31 04:02:37;;;;;;;11.32;6.80;;;;;;;13.67;100.00;100171.81;4986697;28;20105;-77
2023/07/31 04:05:03;;;;;;;12.17;7.40;;;;;;;13.71;100.00;100175.75;4988803;28;20630;-77
2023/07/31 04:07:28;;;;;;;18.50;7.63;;;;;;;13.67;100.00;100169.13;4991089;28;20410;-76
2023/07/31 04:09:54;;;;;;;16.93;6.83;;;;;;;13.61;100.00;100156.50;4990077;28;20034;-76
2023/07/31 04:12:19;;;;;;;15.23;6.53;;;;;;;13.65;100.00;100166.66;4987862;28;20376;-76
2023/07/31 04:14:44;;;;;;;14.83;6.53;;;;;;;13.71;100.00;100168.53;4990425;28;20034;-77
2023/07/31 04:17:10;;;;;;;17.83;6.77;;;;;;;13.75;100.00;100162.78;4989263;28;20032;-76
2023/07/31 04:19:38;;;;;;;23.23;7.30;;;;;;;13.78;100.00;100162.38;5001080;28;20074;-76
2023/07/31 04:22:03;;;;;;;14.05;6.32;;;;;;;13.75;100.00;100154.75;4992076;28;20038;-76
2023/07/31 04:24:29;;;;;;;13.67;6.60;;;;;;;13.63;100.00;100141.88;4986825;28;20030;-76
2023/07/31 04:26:54;;;;;;;20.57;7.90;;;;;;;13.69;100.00;100150.97;4984067;28;20034;-76
2023/07/31 04:29:19;;;;;;;18.17;6.77;;;;;;;13.73;100.00;100149.56;4988201;28;20058;-76
2023/07/31 04:31:45;;;;;;;24.10;6.57;;;;;;;13.64;100.00;100151.56;4993042;28;20057;-76
2023/07/31 04:34:13;;;;;;;14.50;6.88;;;;;;;13.72;100.00;100150.59;5003035;28;20404;-76
2023/07/31 04:36:42;;;;;;;10.88;5.68;;;;;;;13.70;100.00;100149.97;4993775;28;20120;-76
2023/07/31 04:39:07;;;;;;;12.13;6.63;;;;;;;13.71;100.00;100141.69;4984460;28;20026;-76
2023/07/31 04:41:33;;;;;;;15.93;6.10;;;;;;;13.72;100.00;100138.00;4988775;28;20411;-75
2023/07/31 04:43:58;;;;;;;19.47;6.17;;;;;;;13.75;100.00;100144.84;4969921;28;20061;-76
2023/07/31 04:46:23;;;;;;;14.13;7.20;;;;;;;13.75;100.00;100136.78;4987956;28;20391;-75
2023/07/31 04:48:52;;;;;;;16.50;5.73;;;;;;;13.76;100.00;100140.28;4988274;28;20034;-75
2023/07/31 04:51:17;;;;;;;18.30;7.13;;;;;;;13.78;100.00;100141.75;4988006;28;20704;-75
2023/07/31 04:53:42;;;;;;;14.03;6.20;;;;;;;13.79;100.00;100146.09;4990483;28;20040;-76
2023/07/31 04:56:10;;;;;;;16.05;5.95;;;;;;;13.90;100.00;100145.50;5001316;28;20073;-76
2023/07/31 04:58:36;;;;;;;17.60;7.63;;;;;;;13.84;100.00;100140.97;4998206;28;20039;-75
2023/07/31 05:01:01;;;;;;;19.30;6.93;;;;;;;13.88;100.00;100131.50;4987916;28;20584;-76
2023/07/31 05:03:26;;;;;;;14.20;6.60;;;;;;;13.94;100.00;100136.03;4984699;28;20525;-76
2023/07/31 05:05:52;;;;;;;11.53;6.20;;;;;;;13.87;100.00;100118.28;4998339;28;20026;-76
2023/07/31 05:08:17;;;;;;;18.83;7.70;;;;;;;13.94;100.00;100130.69;4982627;28;20111;-76
2023/07/31 05:10:43;;;;;;;14.33;6.73;;;;;;;13.91;100.00;100123.03;4987964;28;20089;-75
2023/07/31 05:13:08;;;;;;;13.05;5.90;;;;;;;13.94;100.00;100116.44;5020646;28;20785;-76
2023/07/31 05:15:34;;;;;;;15.03;6.63;;;;;;;14.02;100.00;100129.69;5006012;28;20022;-77
2023/07/31 05:17:59;;;;;;;13.23;7.37;;;;;;;14.00;100.00;100107.59;4988381;28;20107;-76
2023/07/31 05:20:25;;;;;;;13.30;7.13;;;;;;;13.94;100.00;100119.13;4997743;28;20014;-76
2023/07/31 05:22:51;;;;;;;14.70;7.97;;;;;;;13.99;100.00;100107.78;5003729;28;20033;-76
2023/07/31 05:25:16;;;;;;;16.83;7.13;;;;;;;14.10;100.00;100112.59;4998478;28;20026;-76
2023/07/31 05:27:44;;;;;;;13.23;6.90;;;;;;;14.06;100.00;100108.63;5005679;28;20068;-77
2023/07/31 05:30:10;;;;;;;12.43;6.72;;;;;;;14.11;100.00;100111.53;5004686;28;20049;-76
2023/07/31 05:32:35;;;;;;;11.73;6.40;;;;;;;14.20;100.00;100107.66;5004234;28;20033;-76
2023/07/31 05:35:00;;;;;;;15.10;7.23;;;;;;;14.19;100.00;100100.66;5004308;28;20080;-76
2023/07/31 05:37:26;;;;;;;14.77;7.20;;;;;;;14.21;100.00;100098.59;5020708;28;20037;-76
2023/07/31 05:39:52;;;;;;;16.77;8.13;;;;;;;14.17;100.00;100085.78;4992072;28;20479;-76
2023/07/31 05:42:17;;;;;;;13.63;7.70;;;;;;;14.12;100.00;100081.00;4987056;28;20591;-76
2023/07/31 05:44:43;;;;;;;12.40;7.80;;;;;;;14.14;100.00;100070.88;5007233;23;20420;-92
2023/07/31 05:47:08;;;;;;;14.07;7.95;;;;;;;14.13;100.00;100063.84;5013300;28;20030;-91
2023/07/31 05:49:34;;;;;;;19.10;9.30;;;;;;;14.17;100.00;100069.66;5013454;28;20068;-92
2023/07/31 05:51:59;;;;;;;13.90;7.73;;;;;;;14.18;100.00;100058.72;5032828;28;20037;-92
2023/07/31 05:54:25;;;;;;;16.77;8.13;;;;;;;14.24;100.00;100065.97;5027312;28;20050;-92
2023/07/31 05:56:50;;;;;;;16.37;8.23;;;;;;;14.25;100.00;100056.84;5030833;28;20034;-91
2023/07/31 05:59:16;;;;;;;13.23;8.17;;;;;;;14.48;100.00;100077.16;5028396;28;20042;-91
2023/07/31 06:01:42;;;;;;;10.77;7.13;;;;;;;14.26;100.00;100055.03;5036326;28;20813;-89
2023/07/31 06:04:07;;;;;;;12.10;7.77;;;;;;;14.44;100.00;100075.91;5035463;28;20026;-91
2023/07/31 06:06:32;;;;;;;15.07;7.33;;;;;;;14.46;100.00;100073.84;5035977;28;20029;-91
2023/07/31 06:08:58;;;;;;;12.00;7.57;;;;;;;14.50;100.00;100070.53;5015602;28;20021;-90
2023/07/31 06:11:23;;;;;;;20.03;7.53;;;;;;;14.40;100.00;100050.47;5037228;28;20040;-92
2023/07/31 06:13:49;;;;;;;13.07;7.53;;;;;;;14.46;100.00;100057.72;5014114;28;20036;-90
2023/07/31 06:16:15;;;;;;;;;;;;;;;14.54;100.00;100065.63;5032648;28;20025;-89
2023/07/31 06:18:41;;;;;;;9.32;6.55;;;;;;;14.58;100.00;100058.81;5032768;28;19909;-90
2023/07/31 06:21:06;;;;;;;9.73;6.75;;;;;;;14.49;100.00;100054.63;5032095;28;20096;-90
2023/07/31 06:23:32;;;;;;;8.90;6.53;;;;;;;14.50;100.00;100050.94;5025978;28;20025;-90
2023/07/31 06:25:57;;;;;;;12.10;7.05;;;;;;;14.53;100.00;100040.59;5007286;28;20368;-89
2023/07/31 06:28:31;;;;;;;8.27;6.43;;;;;;;14.56;100.00;100037.53;5031980;28;20024;-88
2023/07/31 06:30:57;;;;;;;10.50;6.57;;;;;;;14.64;100.00;100033.81;5029835;28;20044;-88
2023/07/31 06:33:22;;;;;;;8.98;6.88;;;;;;;14.50;100.00;100032.13;5040719;28;20021;-93
2023/07/31 06:35:48;;;;;;;9.45;7.50;;;;;;;14.49;100.00;100025.09;5012942;28;20048;-90
2023/07/31 06:38:13;;;;;;;8.47;6.83;;;;;;;14.48;100.00;100029.63;5006516;28;20110;-86
2023/07/31 06:40:39;;;;;;;8.70;6.57;;;;;;;14.57;100.00;100031.13;5011092;28;20048;-88
2023/07/31 06:43:07;;;;;;;8.20;6.50;;;;;;;14.65;100.00;100031.94;5021188;28;20036;-87
2023/07/31 06:45:37;;;;;;;8.48;6.28;;;;;;;14.83;100.00;100042.91;5025677;28;20030;-88
2023/07/31 06:48:03;;;;;;;7.95;6.20;;;;;;;14.80;100.00;100029.88;5028172;28;20067;-89
2023/07/31 06:50:32;;;;;;;8.15;5.63;;;;;;;14.73;100.00;100024.50;5024048;28;20388;-89
2023/07/31 06:52:58;;;;;;;6.85;5.30;;;;;;;14.75;100.00;100030.50;5021016;28;20022;-88
2023/07/31 06:55:25;;;;;;;6.65;5.53;;;;;;;14.82;100.00;100035.03;5022998;28;20057;-87
2023/07/31 06:57:53;;;;;;;6.45;5.15;;;;;;;14.80;100.00;100031.72;5022528;28;20018;-90
2023/07/31 07:00:19;;;;;;;10.15;5.43;;;;;;;14.77;100.00;100028.44;5026871;28;20087;-90
2023/07/31 07:02:44;;;;;;;;;;;;;;;14.69;100.00;100028.63;5033108;28;20036;-89
2023/07/31 07:05:10;;;;;;;5.97;4.93;;;;;;;14.52;100.00;100019.31;5047569;28;19906;-92
2023/07/31 07:07:36;;;;;;;5.45;4.82;;;;;;;14.57;100.00;100014.19;5026137;28;20229;-93
2023/07/31 07:10:03;;;;;;;6.05;5.45;;;;;;;14.68;100.00;100029.69;5022610;22;20047;-78
2023/07/31 07:12:32;;;;;;;10.43;5.78;;;;;;;14.59;100.00;100033.59;4969445;28;20034;-77
2023/07/31 07:14:58;;;;;;;6.63;5.00;;;;;;;14.51;100.00;100033.75;4943014;28;20114;-76
2023/07/31 07:17:24;;;;;;;5.43;4.90;;;;;;;14.72;100.00;100054.25;4942992;28;20824;-77
2023/07/31 07:19:49;;;;;;;6.90;5.70;;;;;;;14.66;100.00;100047.06;4950460;28;20031;-76
2023/07/31 07:22:15;;;;;;;5.53;4.57;;;;;;;14.80;100.00;100053.22;4949767;28;20038;-77
2023/07/31 07:24:40;;;;;;;7.93;5.87;;;;;;;14.77;100.00;100049.94;4958805;28;20415;-77
2023/07/31 07:27:06;;;;;;;5.47;4.90;;;;;;;14.84;100.00;100060.66;4966360;28;20267;-77
2023/07/31 07:29:31;;;;;;;6.82;5.57;;;;;;;14.75;100.00;100062.75;4954043;28;20127;-77
2023/07/31 07:31:57;;;;;;;7.95;6.05;;;;;;;14.74;100.00;100049.50;4945426;28;20028;-77
2023/07/31 07:34:24;;;;;;;7.10;5.50;;;;;;;14.66;100.00;100055.94;4953267;28;20031;-77
2023/07/31 07:36:49;;;;;;;6.10;5.50;;;;;;;14.66;100.00;100061.31;4957758;28;20019;-77
2023/07/31 07:39:15;;;;;;;8.57;5.37;;;;;;;14.67;100.00;100052.19;4975367;28;20043;-77
2023/07/31 07:41:40;;;;;;;5.95;5.15;;;;;;;14.72;100.00;100052.41;4950559;28;20586;-77
2023/07/31 07:44:07;;;;;;;6.40;5.33;;;;;;;14.72;100.00;100057.78;4967354;28;20054;-78
2023/07/31 07:46:33;;;;;;;6.60;5.00;;;;;;;14.75;100.00;100054.69;4948849;28;20461;-78
2023/07/31 07:48:58;;;;;;;8.77;5.83;;;;;;;14.72;100.00;100055.09;4968232;28;20143;-79
2023/07/31 07:51:24;;;;;;;5.50;4.57;;;;;;;14.76;100.00;100064.41;4974405;28;20027;-78
2023/07/31 07:53:50;;;;;;;5.72;4.38;;;;;;;14.66;100.00;100053.25;4956527;28;20558;-79
2023/07/31 07:56:15;;;;;;;8.87;5.07;;;;;;;14.80;100.00;100054.06;4972455;28;20031;-78
2023/07/31 07:58:40;;;;;;;6.50;5.20;;;;;;;14.80;100.00;100054.06;4967267;28;20038;-79
2023/07/31 08:01:06;;;;;;;6.57;5.43;;;;;;;14.83;100.00;100050.16;4957875;28;20038;-79
2023/07/31 08:03:31;;;;;;;6.53;4.83;;;;;;;14.75;100.00;100049.31;4968144;28;20032;-79
2023/07/31 08:06:00;;;;;;;6.63;4.37;;;;;;;14.97;100.00;100062.53;4942936;28;20118;-78
2023/07/31 08:08:26;;;;;;;5.38;4.60;;;;;;;14.97;100.00;100043.72;4948968;28;20383;-78
2023/07/31 08:10:51;;;;;;;9.02;5.55;;;;;;;14.98;100.00;100048.06;4952195;28;20114;-80
2023/07/31 08:13:16;;;;;;;5.50;4.17;;;;;;;15.19;100.00;100052.38;4957654;28;20038;-79
2023/07/31 08:15:42;;;;;;;2.80;2.60;;;;;;;15.41;100.00;100050.25;4963814;28;20439;-79
2023/07/31 08:18:08;;;;;;;4.30;3.90;;;;;;;15.54;100.00;100034.06;4964199;28;20137;-80
2023/07/31 08:20:34;;;;;;;3.42;3.13;;;;;;;15.52;100.00;100003.88;4956868;28;20146;-81
2023/07/31 08:22:59;;;;;;;4.47;3.37;;;;;;;15.51;100.00;99993.31;4944352;28;20031;-80
2023/07/31 08:25:25;;;;;;;4.33;2.93;;;;;;;15.63;100.00;100005.88;4981055;28;20034;-80
2023/07/31 08:27:52;;;;;;;4.35;2.72;;;;;;;15.59;100.00;99993.06;4953233;28;20039;-78
2023/07/31 08:30:18;;;;;;;4.40;3.25;;;;;;;15.34;100.00;99987.59;4961799;28;20436;-79
2023/07/31 08:32:43;;;;;;;4.15;3.10;;;;;;;15.33;100.00;99992.13;4976793;28;20030;-81
2023/07/31 08:35:09;;;;;;;4.07;3.00;;;;;;;15.20;100.00;99978.75;4976374;28;20037;-82
2023/07/31 08:37:34;;;;;;;3.50;3.07;;;;;;;15.30;100.00;99989.06;4942640;28;20045;-83
2023/07/31 08:39:59;;;;;;;4.73;3.00;;;;;;;15.09;100.00;99985.59;4953703;28;20038;-81
2023/07/31 08:42:25;;;;;;;3.63;2.20;;;;;;;15.11;100.00;99983.53;4961007;28;20062;-80
2023/07/31 08:44:52;;;;;;;2.90;2.40;;;;;;;15.26;100.00;99987.81;4978990;28;20035;-79
2023/07/31 08:47:19;;;;;;;4.95;2.90;;;;;;;15.18;100.00;100005.03;4967107;28;20035;-79
2023/07/31 08:49:46;;;;;;;2.83;2.45;;;;;;;15.22;100.00;100005.41;4957381;28;20022;-80
2023/07/31 08:52:11;;;;;;;4.80;2.65;;;;;;;15.38;100.00;100037.22;4961393;28;20045;-80
2023/07/31 08:54:36;;;;;;;3.30;2.87;;;;;;;15.33;100.00;100016.34;4956157;28;20189;-80
2023/07/31 08:57:04;;;;;;;3.20;2.53;;;;;;;15.38;100.00;100027.31;4966342;28;20039;-79
2023/07/31 08:59:31;;;;;;;3.20;2.90;;;;;;;15.34;100.00;100023.38;4952914;28;20096;-80
2023/07/31 09:02:02;;;;;;;2.47;2.13;;;;;;;15.40;100.00;100027.94;4943959;28;20457;-79
2023/07/31 09:04:28;;;;;;;2.70;2.40;;;;;;;15.52;100.00;100032.63;4937451;29;20097;-80
2023/07/31 09:06:59;;;;;;;2.95;2.63;;;;;;;15.44;100.00;100020.25;4946494;28;20236;-80
2023/07/31 09:09:25;;;;;;;2.97;2.20;;;;;;;15.30;100.00;100024.00;4953117;28;20079;-81
2023/07/31 09:11:51;;;;;;;2.40;2.10;;;;;;;15.25;100.00;100019.28;4956914;28;20050;-79
2023/07/31 09:14:17;;;;;;;;;;;;;;;15.27;100.00;100027.13;4975553;28;20284;-80
2023/07/31 09:16:56;;;;;;;3.00;2.70;;;;;;;15.24;100.00;100032.91;4962921;28;19914;-80
2023/07/31 09:19:33;;;;;;;3.08;2.72;;;;;;;15.25;100.00;100045.34;4956897;28;20028;-80
2023/07/31 09:21:59;;;;;;;3.10;2.50;;;;;;;15.18;100.00;100021.97;4957186;28;20130;-79
2023/07/31 09:24:27;;;;;;;3.25;2.83;;;;;;;15.22;100.00;100025.06;4960343;28;20637;-80
2023/07/31 09:26:55;;;;;;;5.72;3.13;;;;;;;15.18;100.00;100029.22;4959679;28;20037;-79
2023/07/31 09:29:20;;;;;;;3.40;2.75;;;;;;;15.18;100.00;100027.34;4929773;28;20030;-78
2023/07/31 09:31:46;;;;;;;3.50;3.17;;;;;;;15.29;100.00;100033.09;4965585;28;20491;-80
2023/07/31 09:34:11;;;;;;;3.87;2.60;;;;;;;15.20;100.00;100036.03;4948232;28;20078;-80
2023/07/31 09:36:42;;;;;;;3.30;2.90;;;;;;;15.25;100.00;100037.28;4958925;28;20062;-79
2023/07/31 09:39:09;;;;;;;3.67;2.92;;;;;;;15.28;100.00;100034.97;4956009;28;20575;-79
2023/07/31 09:41:54;;;;;;;3.80;3.38;;;;;;;15.37;100.00;100038.28;4979032;28;20023;-78
2023/07/31 09:44:20;;;;;;;3.60;3.30;;;;;;;15.46;100.00;100030.81;4951361;28;20039;-82
2023/07/31 09:46:46;;;;;;;3.75;3.40;;;;;;;15.53;100.00;100032.44;4960790;28;20027;-81
2023/07/31 09:49:14;;;;;;;5.65;3.60;;;;;;;15.58;100.00;100031.78;4959331;28;20024;-82
2023/07/31 09:51:41;;;;;;;3.22;2.90;;;;;;;15.50;100.00;100026.63;4976486;28;20029;-81
2023/07/31 09:54:14;;;;;;;3.25;2.95;;;;;;;15.57;100.00;100014.00;4948057;28;20031;-83
2023/07/31 09:56:48;;;;;;;3.55;3.25;;;;;;;15.67;100.00;100010.84;4971682;28;20031;-81
2023/07/31 09:59:16;;;;;;;4.10;3.25;;;;;;;15.51;100.00;99991.47;4949776;28;20023;-84
2023/07/31 10:01:43;;;;;;;3.63;2.85;;;;;;;15.43;100.00;99983.63;4955929;28;20022;-83
2023/07/31 10:04:10;;;;;;;4.15;3.22;;;;;;;15.41;100.00;99965.00;4949575;28;20054;-82
2023/07/31 10:06:36;;;;;;;3.25;2.97;;;;;;;15.72;100.00;99998.44;4952461;28;20492;-83
2023/07/31 10:09:08;;;;;;;3.85;3.25;;;;;;;15.79;100.00;99982.25;4957099;28;20391;-81
2023/07/31 10:11:50;;;;;;;4.75;3.13;;;;;;;15.98;100.00;99989.38;4964737;28;20033;-84
2023/07/31 10:14:16;;;;;;;3.58;2.63;;;;;;;16.14;100.00;99985.34;4953021;28;20027;-83
2023/07/31 10:16:43;;;;;;;4.80;2.92;;;;;;;16.32;100.00;99992.69;4964943;28;20102;-81
2023/07/31 10:19:08;;;;;;;3.65;2.78;;;;;;;16.55;100.00;99988.56;4966793;28;20039;-80
2023/07/31 10:21:35;;;;;;;3.00;2.20;;;;;;;16.22;100.00;99971.66;4946944;28;20404;-81
2023/07/31 10:24:04;;;;;;;2.97;2.67;;;;;;;16.23;100.00;99967.06;4943239;28;20031;-80
2023/07/31 10:26:32;;;;;;;2.90;2.53;;;;;;;16.16;100.00;99969.00;4939645;28;20020;-82
2023/07/31 10:28:58;;;;;;;2.67;2.42;;;;;;;16.34;100.00;99973.59;4969629;28;20043;-81
2023/07/31 10:31:24;;;;;;;7.35;3.35;;;;;;;16.34;100.00;99966.38;4959941;28;20106;-81
2023/07/31 10:33:54;;;;;;;2.83;2.55;;;;;;;16.13;100.00;99953.25;4959833;28;20489;-82
2023/07/31 10:36:20;;;;;;;3.13;2.83;;;;;;;16.01;100.00;99943.22;4972966;28;20511;-85
2023/07/31 10:38:48;;;;;;;3.90;2.97;;;;;;;15.82;100.00;99933.38;4947780;28;20154;-81
2023/07/31 10:41:14;;;;;;;3.10;2.75;;;;;;;16.04;100.00;99953.53;4970538;28;20039;-85
2023/07/31 10:43:39;;;;;;;4.93;3.05;;;;;;;16.10;100.00;99959.09;4958580;28;20074;-83
2023/07/31 10:46:11;;;;;;;4.80;3.10;;;;;;;16.21;100.00;99951.13;4947882;28;20042;-81
2023/07/31 10:48:38;;;;;;;4.28;2.97;;;;;;;16.30;100.00;99958.94;4952711;28;20031;-82
2023/07/31 10:51:10;;;;;;;4.25;3.13;;;;;;;16.39;100.00;99971.09;4951484;28;20505;-81
2023/07/31 10:53:36;;;;;;;3.72;2.88;;;;;;;16.01;100.00;99948.59;4950206;28;20436;-83
2023/07/31 10:56:04;;;;;;;4.07;2.90;;;;;;;16.02;100.00;99963.69;4954221;28;20023;-83
2023/07/31 10:58:31;;;;;;;4.07;3.55;;;;;;;16.08;100.00;99975.44;4953665;28;20039;-83
2023/07/31 11:01:03;;;;;;;5.05;2.95;;;;;;;15.88;100.00;99974.75;4950855;28;20027;-82
2023/07/31 11:03:43;;;;;;;3.33;2.90;;;;;;;15.88;100.00;99986.34;4939972;28;20432;-82
2023/07/31 11:06:08;;;;;;;4.07;2.90;;;;;;;15.77;100.00;99977.09;4953553;28;20050;-82
2023/07/31 11:08:41;;;;;;;3.28;2.97;;;;;;;15.86;100.00;99983.03;4945495;28;20027;-83
2023/07/31 11:11:08;;;;;;;4.95;2.90;;;;;;;15.90;100.00;99988.84;4950489;28;20485;-82
2023/07/31 11:13:41;;;;;;;3.20;2.58;;;;;;;15.77;100.00;99973.56;4946840;28;20510;-81